»·PEaware :: N54073 KBZN-KMSO

N54073 :: KBZN-KMSO

FLIGHT INFORMATION

Flight Status: Arrived
Operator: Privately registered:
United States
More flights under this callsign
Pilot: Anonymous 27411 (27411)
Aircraft: BEECH AIRCRAFT BARON
(BE58)
More flights by this aircraft type
Origin: KBZN Gallatin
United States
Destination: KMSO Missoula Intl
United States
More flights between these airports :: More routes between these airports
Route: TEERX4 TEERX HIA V86 MSO
File this flight plan on PilotEdge
Remarks: thank you!
Altitude:
(Current/Filed)
10,000ft
Speed:
(Current/Filed)
175kts
Departed: 18-Nov-21 06:03 PM
Arrived: 18-Nov-21 07:23 PM
Distance/Time
Traveled:
140nm/1:19
Distance/Time
To Go:
Arrived

Flight Plot

Page will automatically refresh every two minutes.

Flight plan parsing failed; only flown route is shown


Map Options




Map Legend


Flown Route
Filed Route
Departure Airport
Arrival Airport
Navaid (VOR, NDB)
Fix

Horizontal Profiles

Position Reports

Time Latitude Longitude Heading Altitude Ground
Speed
18-Nov-21 17:33 45.774395 -111.153617 318 4475ft 0kts
18-Nov-21 17:35 45.774395 -111.153617 318 4475ft 0kts
18-Nov-21 17:36 45.774395 -111.153617 318 4475ft 0kts
18-Nov-21 17:37 45.774395 -111.153617 318 4475ft 0kts
18-Nov-21 17:38 45.774395 -111.153617 318 4475ft 0kts
18-Nov-21 17:39 45.774395 -111.153617 318 4475ft 0kts
18-Nov-21 17:40 45.774395 -111.153617 318 4475ft 0kts
18-Nov-21 17:41 45.774395 -111.153617 318 4475ft 0kts
18-Nov-21 17:42 45.774395 -111.153617 318 4475ft 0kts
18-Nov-21 17:43 45.774395 -111.153617 318 4475ft 0kts
18-Nov-21 17:44 45.774395 -111.153617 318 4475ft 0kts
18-Nov-21 17:45 45.774395 -111.153617 318 4475ft 0kts
18-Nov-21 17:46 45.774409 -111.153631 330 4475ft 0kts
18-Nov-21 17:47 45.775731 -111.153636 10 4475ft 6kts
18-Nov-21 17:48 45.777471 -111.155868 314 4475ft 11kts
18-Nov-21 17:49 45.779919 -111.159277 318 4475ft 13kts
18-Nov-21 17:50 45.782854 -111.163329 316 4475ft 15kts
18-Nov-21 17:51 45.786048 -111.167756 314 4475ft 16kts
18-Nov-21 17:52 45.787084 -111.167791 46 4475ft 0kts
18-Nov-21 17:53 45.787084 -111.167791 46 4475ft 0kts
18-Nov-21 17:54 45.787084 -111.167791 46 4475ft 0kts
18-Nov-21 17:55 45.787084 -111.167791 46 4475ft 0kts
18-Nov-21 17:56 45.787084 -111.167791 46 4475ft 0kts
18-Nov-21 17:57 45.787084 -111.167791 46 4475ft 0kts
18-Nov-21 17:58 45.787084 -111.167791 46 4475ft 0kts
18-Nov-21 17:59 45.787084 -111.167791 46 4475ft 0kts
18-Nov-21 17:59 45.787084 -111.167791 46 4475ft 0kts
18-Nov-21 18:00 45.787303 -111.167417 48 4475ft 0kts
18-Nov-21 18:02 45.787554 -111.165750 133 4475ft 18kts
18-Nov-21 18:03 45.771449 -111.142164 143 5163ft 110kts
18-Nov-21 18:03 45.749666 -111.151011 228 6367ft 101kts
18-Nov-21 18:04 45.726485 -111.178491 218 7537ft 113kts
18-Nov-21 18:05 45.699249 -111.205326 241 8525ft 119kts
18-Nov-21 18:06 45.699393 -111.244690 286 9681ft 98kts
18-Nov-21 18:07 45.706100 -111.288054 282 10010ft 138kts
18-Nov-21 18:08 45.716091 -111.346670 283 9850ft 167kts
18-Nov-21 18:09 45.721262 -111.409188 278 9968ft 167kts
18-Nov-21 18:10 45.730758 -111.471431 273 10069ft 161kts
18-Nov-21 18:11 45.734919 -111.532615 283 10156ft 157kts
18-Nov-21 18:12 45.742272 -111.594373 280 9996ft 160kts
18-Nov-21 18:13 45.752141 -111.655560 302 9738ft 177kts
18-Nov-21 18:14 45.767488 -111.716963 281 9858ft 179kts
18-Nov-21 18:15 45.785925 -111.782491 289 10041ft 182kts
18-Nov-21 18:16 45.799591 -111.848139 274 10213ft 173kts
18-Nov-21 18:17 45.813171 -111.917336 276 10091ft 183kts
18-Nov-21 18:18 45.823015 -111.986360 284 10019ft 171kts
18-Nov-21 18:19 45.834488 -112.050400 287 10028ft 167kts
18-Nov-21 18:20 45.845836 -112.112935 276 10225ft 159kts
18-Nov-21 18:21 45.860449 -112.176054 292 9998ft 167kts
18-Nov-21 18:22 45.882932 -112.233022 297 10093ft 166kts
18-Nov-21 18:23 45.903322 -112.293358 289 10018ft 166kts
18-Nov-21 18:24 45.920485 -112.353051 286 10243ft 158kts
18-Nov-21 18:25 45.937022 -112.413671 290 10140ft 163kts
18-Nov-21 18:26 45.953673 -112.475448 291 10095ft 162kts
18-Nov-21 18:27 45.970023 -112.536671 289 10321ft 150kts
18-Nov-21 18:28 45.986930 -112.598588 291 10014ft 166kts
18-Nov-21 18:29 46.005007 -112.659476 292 10139ft 160kts
18-Nov-21 18:30 46.025856 -112.718697 290 10013ft 167kts
18-Nov-21 18:31 46.053770 -112.770623 308 10004ft 173kts
18-Nov-21 18:32 46.086497 -112.820217 312 9974ft 171kts
18-Nov-21 18:33 46.120081 -112.868100 302 10027ft 167kts
18-Nov-21 18:34 46.150080 -112.920307 307 10087ft 166kts
18-Nov-21 18:35 46.180793 -112.968128 313 9995ft 177kts
18-Nov-21 18:36 46.215535 -113.021182 311 10041ft 175kts
18-Nov-21 18:37 46.248038 -113.072230 308 10111ft 174kts
18-Nov-21 18:38 46.281009 -113.125465 310 9996ft 177kts
18-Nov-21 18:39 46.314089 -113.178401 310 9938ft 177kts
18-Nov-21 18:40 46.347843 -113.228832 310 9901ft 181kts
18-Nov-21 18:41 46.380147 -113.280338 312 10152ft 169kts
18-Nov-21 18:42 46.415227 -113.330326 311 10010ft 174kts
18-Nov-21 18:43 46.450712 -113.379931 307 9976ft 178kts
18-Nov-21 18:44 46.484527 -113.431162 313 9959ft 185kts
18-Nov-21 18:45 46.520768 -113.481707 312 9993ft 181kts
18-Nov-21 18:46 46.555629 -113.532549 308 10067ft 178kts
18-Nov-21 18:47 46.589870 -113.586017 309 10020ft 184kts
18-Nov-21 18:48 46.624848 -113.638051 309 10207ft 173kts
18-Nov-21 18:49 46.661701 -113.688621 310 10065ft 184kts
18-Nov-21 18:50 46.693129 -113.744922 302 10170ft 176kts
18-Nov-21 18:51 46.727435 -113.793964 319 10407ft 180kts
18-Nov-21 18:52 46.759477 -113.843775 306 10871ft 162kts
18-Nov-21 18:53 46.791667 -113.893654 306 10675ft 167kts
18-Nov-21 18:54 46.824307 -113.944406 303 10567ft 169kts
18-Nov-21 18:55 46.854507 -113.996149 310 10542ft 171kts
18-Nov-21 18:56 46.885736 -114.045300 313 10575ft 170kts
18-Nov-21 18:57 46.925892 -114.076603 349 10579ft 181kts
18-Nov-21 18:58 46.975553 -114.080961 353 10638ft 178kts
18-Nov-21 18:59 47.026096 -114.085794 347 10595ft 182kts
18-Nov-21 19:00 47.076802 -114.091630 352 10366ft 194kts
18-Nov-21 19:01 47.126738 -114.093860 345 10514ft 183kts
18-Nov-21 19:02 47.177557 -114.096130 347 10601ft 181kts
18-Nov-21 19:03 47.227122 -114.100594 353 10670ft 184kts
18-Nov-21 19:04 47.277595 -114.104733 338 10608ft 178kts
18-Nov-21 19:05 47.316101 -114.132444 270 10738ft 148kts
18-Nov-21 19:06 47.316264 -114.196193 264 10587ft 157kts
18-Nov-21 19:07 47.304744 -114.258850 255 10631ft 154kts
18-Nov-21 19:08 47.290143 -114.320147 248 10532ft 160kts
18-Nov-21 19:09 47.270515 -114.378750 242 10549ft 160kts
18-Nov-21 19:10 47.245585 -114.432930 239 10528ft 164kts
18-Nov-21 19:11 47.218871 -114.485264 230 10655ft 162kts
18-Nov-21 19:12 47.180051 -114.514025 174 10652ft 185kts
18-Nov-21 19:13 47.133765 -114.472091 140 10150ft 195kts
18-Nov-21 19:14 47.102356 -114.429395 146 9117ft 142kts
18-Nov-21 19:15 47.080873 -114.385089 125 7971ft 129kts
18-Nov-21 19:16 47.058958 -114.339368 127 7133ft 144kts
18-Nov-21 19:17 47.033455 -114.293509 130 6582ft 152kts
18-Nov-21 19:18 47.006596 -114.246652 129 5776ft 152kts
18-Nov-21 19:19 46.979559 -114.201005 128 4990ft 143kts
18-Nov-21 19:20 46.953376 -114.156425 127 4068ft 131kts
18-Nov-21 19:21 46.930184 -114.115533 127 3434ft 131kts
18-Nov-21 19:22 46.918178 -114.093898 26 3210ft 13kts
18-Nov-21 19:23 46.918429 -114.093650 36 3210ft 0kts
18-Nov-21 19:24 46.918867 -114.092917 88 3210ft 8kts
18-Nov-21 19:25 46.918586 -114.089389 39 3210ft 11kts
18-Nov-21 19:26 46.920025 -114.086567 128 3210ft 1kts
18-Nov-21 19:27 46.921726 -114.086111 306 3210ft 0kts

Navigation Log

Ident Type
Flight plan parsing failed, navigation log unavailable